RYR4YT LOWW-LIMC
Flight info
| Callsign | RYR4YT |
|---|---|
| Flight time | N/A |
| Altitude | 34000 |
| Route | OSPEN DCT ABRUK DCT SETAL DCT DETSA DCT RENTA M984 EVRIP |
| Aircraft | B738/M-SDE2E3FGHIRWXY/LB1 |
Departure
| Time | 2026-05-05 19:40 |
|---|---|
| Airport | Vienna International Airport (LOWW) |
Arrival
| Time | N/A |
|---|---|
| Airport | Milan Malpensa International Airport (LIMC) |
| Time | Latitude | Longitude | Altitude | Speed | Heading |
|---|---|---|---|---|---|
| 2026-05-05 19:18 | 48.11725 | 16.56735 | 621 ft | 0 kts | 26° |
| 2026-05-05 19:28 | 48.11720 | 16.56732 | 609 ft | 4 kts | 26° |
| 2026-05-05 19:29 | 48.11695 | 16.56714 | 615 ft | 4 kts | 26° |
| 2026-05-05 19:29 | 48.11674 | 16.56699 | 613 ft | 4 kts | 14° |
| 2026-05-05 19:29 | 48.11653 | 16.56701 | 625 ft | 4 kts | 313° |
| 2026-05-05 19:29 | 48.11641 | 16.56728 | 617 ft | 1 kts | 296° |
| 2026-05-05 19:30 | 48.11639 | 16.56734 | 617 ft | 0 kts | 296° |
| 2026-05-05 19:32 | 48.11640 | 16.56732 | 617 ft | 1 kts | 296° |
| 2026-05-05 19:33 | 48.11645 | 16.56716 | 621 ft | 3 kts | 295° |
| 2026-05-05 19:33 | 48.11664 | 16.56652 | 618 ft | 10 kts | 294° |
| 2026-05-05 19:33 | 48.11707 | 16.56523 | 617 ft | 17 kts | 296° |
| 2026-05-05 19:33 | 48.11747 | 16.56335 | 617 ft | 20 kts | 240° |
| 2026-05-05 19:34 | 48.11651 | 16.56224 | 615 ft | 13 kts | 238° |
| 2026-05-05 19:34 | 48.11678 | 16.56101 | 615 ft | 14 kts | 307° |
| 2026-05-05 19:34 | 48.11731 | 16.55960 | 617 ft | 17 kts | 297° |
| 2026-05-05 19:35 | 48.11849 | 16.55590 | 615 ft | 22 kts | 296° |
| 2026-05-05 19:35 | 48.11912 | 16.55368 | 620 ft | 24 kts | 296° |
| 2026-05-05 19:35 | 48.11985 | 16.55131 | 611 ft | 26 kts | 296° |
| 2026-05-05 19:35 | 48.12067 | 16.54882 | 613 ft | 26 kts | 296° |
| 2026-05-05 19:36 | 48.12141 | 16.54636 | 609 ft | 17 kts | 265° |
| 2026-05-05 19:36 | 48.12099 | 16.54507 | 617 ft | 7 kts | 291° |
| 2026-05-05 19:36 | 48.12133 | 16.54436 | 612 ft | 10 kts | 306° |
| 2026-05-05 19:36 | 48.12180 | 16.54335 | 613 ft | 14 kts | 305° |
| 2026-05-05 19:37 | 48.12225 | 16.54199 | 615 ft | 16 kts | 285° |
| 2026-05-05 19:37 | 48.12265 | 16.54031 | 617 ft | 18 kts | 295° |
| 2026-05-05 19:37 | 48.12324 | 16.53849 | 617 ft | 21 kts | 297° |
| 2026-05-05 19:37 | 48.12381 | 16.53643 | 613 ft | 22 kts | 267° |
| 2026-05-05 19:38 | 48.12290 | 16.53524 | 617 ft | 11 kts | 204° |
| 2026-05-05 19:38 | 48.12241 | 16.53493 | 609 ft | 0 kts | 189° |
| 2026-05-05 19:38 | 48.12240 | 16.53494 | 609 ft | 0 kts | 176° |
| 2026-05-05 19:38 | 48.12239 | 16.53496 | 609 ft | 0 kts | 157° |
| 2026-05-05 19:39 | 48.12224 | 16.53523 | 611 ft | 6 kts | 118° |
| 2026-05-05 19:39 | 48.12195 | 16.53607 | 613 ft | 15 kts | 116° |
| 2026-05-05 19:39 | 48.12035 | 16.54091 | 616 ft | 96 kts | 115° |
| 2026-05-05 19:39 | 48.11674 | 16.55386 | 681 ft | 167 kts | 112° |
| 2026-05-05 19:40 | 48.11241 | 16.57150 | 1299 ft | 192 kts | 115° |
| 2026-05-05 19:40 | 48.10705 | 16.58876 | 2595 ft | 172 kts | 131° |
| 2026-05-05 19:40 | 48.10096 | 16.60463 | 3312 ft | 187 kts | 128° |
| 2026-05-05 19:40 | 48.09425 | 16.62308 | 3575 ft | 212 kts | 125° |
| 2026-05-05 19:41 | 48.08637 | 16.64283 | 3829 ft | 231 kts | 138° |
| 2026-05-05 19:41 | 48.07245 | 16.65507 | 4095 ft | 242 kts | 172° |
| 2026-05-05 19:41 | 48.05563 | 16.65374 | 4679 ft | 247 kts | 202° |
| 2026-05-05 19:41 | 48.04125 | 16.64010 | 5473 ft | 247 kts | 223° |
| 2026-05-05 19:42 | 48.02903 | 16.62145 | 6156 ft | 257 kts | 229° |
| 2026-05-05 19:42 | 48.02074 | 16.59812 | 7006 ft | 256 kts | 248° |
| 2026-05-05 19:42 | 48.01472 | 16.57250 | 7638 ft | 266 kts | 249° |
| 2026-05-05 19:42 | 48.00876 | 16.54627 | 8447 ft | 266 kts | 249° |
| 2026-05-05 19:43 | 48.00281 | 16.52000 | 9249 ft | 269 kts | 249° |
| 2026-05-05 19:43 | 47.99677 | 16.49348 | 9866 ft | 267 kts | 249° |
| 2026-05-05 19:43 | 47.99067 | 16.46687 | 9970 ft | 275 kts | 249° |
| 2026-05-05 19:43 | 47.98443 | 16.43983 | 9981 ft | 278 kts | 249° |
| 2026-05-05 19:44 | 47.97812 | 16.41259 | 9991 ft | 277 kts | 249° |
| 2026-05-05 19:44 | 47.97183 | 16.38551 | 9978 ft | 277 kts | 249° |
| 2026-05-05 19:44 | 47.96552 | 16.35839 | 9997 ft | 276 kts | 249° |
| 2026-05-05 19:44 | 47.95920 | 16.33130 | 9995 ft | 277 kts | 249° |
| 2026-05-05 19:45 | 47.95276 | 16.30383 | 10102 ft | 289 kts | 249° |
| 2026-05-05 19:45 | 47.94591 | 16.27468 | 10245 ft | 313 kts | 249° |
| 2026-05-05 19:45 | 47.93848 | 16.24303 | 10508 ft | 331 kts | 249° |
| 2026-05-05 19:45 | 47.93076 | 16.21017 | 11028 ft | 339 kts | 249° |
| 2026-05-05 19:46 | 47.92296 | 16.17698 | 11891 ft | 336 kts | 250° |
| 2026-05-05 19:46 | 47.91520 | 16.14399 | 12659 ft | 339 kts | 249° |
| 2026-05-05 19:46 | 47.90737 | 16.11080 | 13420 ft | 342 kts | 249° |
| 2026-05-05 19:46 | 47.89938 | 16.07698 | 14014 ft | 348 kts | 249° |
| 2026-05-05 19:47 | 47.89120 | 16.04247 | 14529 ft | 357 kts | 249° |
| 2026-05-05 19:47 | 47.88303 | 16.00803 | 15489 ft | 351 kts | 249° |
| 2026-05-05 19:47 | 47.87412 | 15.97403 | 16222 ft | 354 kts | 243° |
| 2026-05-05 19:47 | 47.86276 | 15.94132 | 16864 ft | 358 kts | 240° |
| 2026-05-05 19:48 | 47.85067 | 15.90868 | 17519 ft | 363 kts | 240° |
| 2026-05-05 19:48 | 47.83825 | 15.87555 | 18108 ft | 368 kts | 240° |
| 2026-05-05 19:48 | 47.82580 | 15.84227 | 18789 ft | 369 kts | 240° |
| 2026-05-05 19:48 | 47.81336 | 15.80878 | 19405 ft | 372 kts | 240° |
| 2026-05-05 19:49 | 47.80080 | 15.77477 | 19906 ft | 378 kts | 240° |
| 2026-05-05 19:49 | 47.79243 | 15.75201 | 20216 ft | 381 kts | 240° |
| 2026-05-05 19:49 | 47.77546 | 15.70575 | 21055 ft | 382 kts | 240° |
| 2026-05-05 19:49 | 47.76269 | 15.67089 | 21635 ft | 385 kts | 240° |
| 2026-05-05 19:50 | 47.74979 | 15.63570 | 22134 ft | 389 kts | 240° |
| 2026-05-05 19:50 | 47.73676 | 15.60020 | 22628 ft | 394 kts | 240° |
| 2026-05-05 19:50 | 47.72362 | 15.56443 | 23183 ft | 396 kts | 240° |
| 2026-05-05 19:50 | 47.71038 | 15.52842 | 23648 ft | 399 kts | 240° |
| 2026-05-05 19:51 | 47.69705 | 15.49220 | 24077 ft | 401 kts | 240° |
| 2026-05-05 19:51 | 47.68361 | 15.45575 | 24527 ft | 403 kts | 240° |
| 2026-05-05 19:51 | 47.67009 | 15.41914 | 24969 ft | 405 kts | 240° |
| 2026-05-05 19:51 | 47.65650 | 15.38239 | 25343 ft | 408 kts | 240° |
| 2026-05-05 19:52 | 47.64280 | 15.34538 | 25746 ft | 411 kts | 240° |
| 2026-05-05 19:52 | 47.62899 | 15.30814 | 26140 ft | 413 kts | 240° |
| 2026-05-05 19:52 | 47.61512 | 15.27080 | 26562 ft | 415 kts | 240° |
| 2026-05-05 19:52 | 47.60115 | 15.23323 | 26934 ft | 417 kts | 240° |
| 2026-05-05 19:53 | 47.58710 | 15.19550 | 27336 ft | 419 kts | 240° |
| 2026-05-05 19:53 | 47.57298 | 15.15763 | 27721 ft | 421 kts | 240° |
| 2026-05-05 19:53 | 47.55877 | 15.11956 | 28097 ft | 423 kts | 240° |
| 2026-05-05 19:53 | 47.54466 | 15.08184 | 28434 ft | 426 kts | 240° |
| 2026-05-05 19:54 | 47.53008 | 15.04290 | 28799 ft | 428 kts | 240° |
| 2026-05-05 19:54 | 47.51561 | 15.00433 | 29155 ft | 430 kts | 240° |
| 2026-05-05 19:54 | 47.50126 | 14.96613 | 29488 ft | 432 kts | 240° |
| 2026-05-05 19:54 | 47.48665 | 14.92728 | 29874 ft | 433 kts | 240° |
| 2026-05-05 19:55 | 47.47181 | 14.88787 | 30272 ft | 432 kts | 240° |
| 2026-05-05 19:55 | 47.45743 | 14.84974 | 30716 ft | 429 kts | 240° |
| 2026-05-05 19:55 | 47.44293 | 14.81136 | 31089 ft | 428 kts | 240° |
| 2026-05-05 19:55 | 47.42839 | 14.77293 | 31395 ft | 429 kts | 240° |
| 2026-05-05 19:56 | 47.41380 | 14.73441 | 31717 ft | 429 kts | 240° |
| 2026-05-05 19:56 | 47.39922 | 14.69599 | 32094 ft | 429 kts | 240° |
| 2026-05-05 19:56 | 47.38470 | 14.65776 | 32542 ft | 425 kts | 240° |
| 2026-05-05 19:56 | 47.37027 | 14.61983 | 32986 ft | 422 kts | 240° |
| 2026-05-05 19:57 | 47.35588 | 14.58207 | 33292 ft | 423 kts | 240° |
| 2026-05-05 19:57 | 47.34634 | 14.55706 | 33477 ft | 424 kts | 240° |
| 2026-05-05 19:57 | 47.32696 | 14.50631 | 33837 ft | 425 kts | 240° |
| 2026-05-05 19:58 | 47.29769 | 14.42987 | 33885 ft | 428 kts | 240° |
| 2026-05-05 19:58 | 47.26901 | 14.35511 | 33873 ft | 417 kts | 240° |
| 2026-05-05 19:59 | 47.24040 | 14.28074 | 33906 ft | 419 kts | 241° |
| 2026-05-05 19:59 | 47.21909 | 14.20104 | 33907 ft | 421 kts | 252° |
| 2026-05-05 20:00 | 47.20237 | 14.11839 | 33903 ft | 422 kts | 252° |
| 2026-05-05 20:00 | 47.18548 | 14.03586 | 33907 ft | 421 kts | 252° |
| 2026-05-05 20:01 | 47.16839 | 13.95374 | 33887 ft | 419 kts | 252° |
| 2026-05-05 20:01 | 47.15125 | 13.87213 | 33897 ft | 416 kts | 252° |
| 2026-05-05 20:02 | 47.13416 | 13.79113 | 33901 ft | 414 kts | 251° |
| 2026-05-05 20:02 | 47.11707 | 13.71049 | 33900 ft | 412 kts | 251° |
| 2026-05-05 20:03 | 47.10005 | 13.63045 | 33911 ft | 410 kts | 251° |
| 2026-05-05 20:03 | 47.08299 | 13.55058 | 33904 ft | 410 kts | 251° |
| 2026-05-05 20:04 | 47.06590 | 13.47085 | 33924 ft | 409 kts | 251° |
| 2026-05-05 20:04 | 47.04878 | 13.39126 | 33922 ft | 410 kts | 251° |
| 2026-05-05 20:05 | 47.03156 | 13.31154 | 33926 ft | 410 kts | 251° |
| 2026-05-05 20:05 | 47.01421 | 13.23154 | 33942 ft | 413 kts | 251° |
| 2026-05-05 20:06 | 46.99674 | 13.15131 | 33934 ft | 415 kts | 250° |
| 2026-05-05 20:06 | 46.97916 | 13.07083 | 33936 ft | 414 kts | 250° |
| 2026-05-05 20:07 | 46.96152 | 12.99041 | 33941 ft | 414 kts | 250° |
| 2026-05-05 20:07 | 46.94398 | 12.91074 | 33935 ft | 414 kts | 250° |
| 2026-05-05 20:08 | 46.92627 | 12.83063 | 33917 ft | 413 kts | 250° |
| 2026-05-05 20:08 | 46.90861 | 12.75101 | 33959 ft | 411 kts | 250° |
| 2026-05-05 20:09 | 46.89093 | 12.67163 | 33959 ft | 410 kts | 250° |
| 2026-05-05 20:09 | 46.87338 | 12.59307 | 33969 ft | 401 kts | 250° |
| 2026-05-05 20:10 | 46.85612 | 12.51612 | 33991 ft | 398 kts | 250° |
| 2026-05-05 20:10 | 46.83876 | 12.43903 | 33995 ft | 401 kts | 250° |
| 2026-05-05 20:11 | 46.82130 | 12.36171 | 34022 ft | 401 kts | 250° |
| 2026-05-05 20:11 | 46.80361 | 12.28435 | 34078 ft | 402 kts | 248° |
| 2026-05-05 20:12 | 46.78001 | 12.21065 | 34053 ft | 401 kts | 242° |
| 2026-05-05 20:12 | 46.75463 | 12.13839 | 33946 ft | 400 kts | 242° |
| 2026-05-05 20:13 | 46.72953 | 12.06651 | 33957 ft | 393 kts | 243° |
| 2026-05-05 20:13 | 46.70516 | 11.99613 | 33972 ft | 387 kts | 243° |
| 2026-05-05 20:14 | 46.68085 | 11.92589 | 33943 ft | 389 kts | 243° |
| 2026-05-05 20:14 | 46.66064 | 11.86753 | 33948 ft | 388 kts | 243° |
| 2026-05-05 20:15 | 46.63635 | 11.79758 | 33970 ft | 387 kts | 243° |
| 2026-05-05 20:15 | 46.61201 | 11.72767 | 33973 ft | 388 kts | 243° |
| 2026-05-05 20:16 | 46.58755 | 11.65763 | 33971 ft | 389 kts | 243° |
| 2026-05-05 20:16 | 46.56304 | 11.58752 | 33975 ft | 388 kts | 243° |
| 2026-05-05 20:17 | 46.53851 | 11.51766 | 33964 ft | 388 kts | 243° |
| 2026-05-05 20:17 | 46.51401 | 11.44805 | 33958 ft | 386 kts | 243° |
| 2026-05-05 20:18 | 46.48964 | 11.37897 | 33970 ft | 384 kts | 243° |
| 2026-05-05 20:18 | 46.46532 | 11.31021 | 33979 ft | 383 kts | 242° |
| 2026-05-05 20:19 | 46.44104 | 11.24174 | 33978 ft | 380 kts | 242° |
| 2026-05-05 20:19 | 46.41691 | 11.17387 | 33976 ft | 378 kts | 242° |
| 2026-05-05 20:20 | 46.39283 | 11.10631 | 34047 ft | 377 kts | 242° |
| 2026-05-05 20:20 | 46.36871 | 11.03882 | 34048 ft | 377 kts | 242° |
| 2026-05-05 20:21 | 46.34476 | 10.97191 | 34048 ft | 376 kts | 242° |
| 2026-05-05 20:21 | 46.32125 | 10.90642 | 34018 ft | 352 kts | 242° |
| 2026-05-05 20:21 | 46.31021 | 10.87572 | 34010 ft | 340 kts | 242° |
| 2026-05-05 20:22 | 46.29939 | 10.84541 | 34031 ft | 337 kts | 242° |
| 2026-05-05 20:22 | 46.27869 | 10.78594 | 34002 ft | 319 kts | 242° |
| 2026-05-05 20:22 | 46.26894 | 10.75785 | 33988 ft | 306 kts | 242° |
| 2026-05-05 20:23 | 46.25959 | 10.73095 | 34006 ft | 293 kts | 242° |
| 2026-05-05 20:23 | 46.25058 | 10.70509 | 33985 ft | 284 kts | 242° |
| 2026-05-05 20:23 | 46.24162 | 10.67946 | 34007 ft | 290 kts | 242° |
| 2026-05-05 20:23 | 46.23239 | 10.65311 | 34018 ft | 298 kts | 242° |
| 2026-05-05 20:24 | 46.22205 | 10.62677 | 33997 ft | 305 kts | 234° |
| 2026-05-05 20:24 | 46.19470 | 10.57753 | 34012 ft | 323 kts | 232° |
| 2026-05-05 20:25 | 46.16567 | 10.52633 | 33999 ft | 337 kts | 232° |
| 2026-05-05 20:25 | 46.13551 | 10.47298 | 34018 ft | 351 kts | 232° |
| 2026-05-05 20:26 | 46.10404 | 10.41723 | 34010 ft | 365 kts | 232° |
| 2026-05-05 20:26 | 46.07175 | 10.36011 | 33995 ft | 363 kts | 232° |
| 2026-05-05 20:26 | 46.05599 | 10.33226 | 33536 ft | 357 kts | 231° |
| 2026-05-05 20:27 | 46.04025 | 10.30448 | 32739 ft | 360 kts | 231° |
| 2026-05-05 20:27 | 46.02429 | 10.27631 | 31850 ft | 366 kts | 231° |
| 2026-05-05 20:27 | 46.00806 | 10.24768 | 30886 ft | 374 kts | 231° |
| 2026-05-05 20:27 | 45.99145 | 10.21842 | 29986 ft | 381 kts | 231° |
| 2026-05-05 20:28 | 45.97462 | 10.18882 | 29358 ft | 380 kts | 231° |
| 2026-05-05 20:28 | 45.95807 | 10.15974 | 29200 ft | 382 kts | 231° |
| 2026-05-05 20:28 | 45.94091 | 10.12963 | 29075 ft | 387 kts | 231° |
| 2026-05-05 20:29 | 45.90689 | 10.06999 | 29011 ft | 387 kts | 231° |
| 2026-05-05 20:29 | 45.87269 | 10.01017 | 28994 ft | 385 kts | 231° |
| 2026-05-05 20:30 | 45.83887 | 9.95114 | 28993 ft | 388 kts | 231° |
| 2026-05-05 20:30 | 45.80419 | 9.89076 | 28998 ft | 389 kts | 231° |
| 2026-05-05 20:31 | 45.76985 | 9.83107 | 29002 ft | 389 kts | 230° |
| 2026-05-05 20:31 | 45.73549 | 9.77148 | 28988 ft | 387 kts | 230° |
| 2026-05-05 20:31 | 45.71857 | 9.74218 | 28820 ft | 377 kts | 230° |
| 2026-05-05 20:32 | 45.70218 | 9.71381 | 28155 ft | 374 kts | 230° |
| 2026-05-05 20:32 | 45.68534 | 9.68469 | 27233 ft | 377 kts | 230° |
| 2026-05-05 20:32 | 45.66843 | 9.65551 | 26419 ft | 380 kts | 230° |
| 2026-05-05 20:32 | 45.65164 | 9.62641 | 26276 ft | 383 kts | 232° |
| 2026-05-05 20:33 | 45.63821 | 9.59346 | 26147 ft | 398 kts | 245° |
| 2026-05-05 20:33 | 45.62995 | 9.55513 | 26161 ft | 410 kts | 255° |
| 2026-05-05 20:33 | 45.62677 | 9.51443 | 26107 ft | 416 kts | 265° |